createdAt,value
2023-09-08T00:00:10.431Z,19.09
2023-09-08T00:02:30.989Z,18.82
2023-09-08T00:04:52.151Z,18.51
2023-09-08T00:07:12.837Z,18.59
2023-09-08T00:09:33.506Z,18.64
2023-09-08T00:11:55.440Z,18.74
2023-09-08T00:14:16.101Z,18.77
2023-09-08T00:16:36.648Z,18.87
2023-09-08T00:18:59.487Z,18.88
2023-09-08T00:21:20.040Z,18.81
2023-09-08T00:23:40.503Z,18.84
2023-09-08T00:26:01.288Z,18.82
2023-09-08T00:28:21.780Z,18.87
2023-09-08T00:30:42.152Z,18.90
2023-09-08T00:33:02.843Z,18.86
2023-09-08T00:35:23.890Z,18.93
2023-09-08T00:37:44.576Z,18.90
2023-09-08T00:40:05.359Z,18.90
2023-09-08T00:42:25.880Z,18.85
2023-09-08T00:44:46.400Z,18.85
2023-09-08T00:47:07.249Z,18.72
2023-09-08T00:49:27.651Z,18.67
2023-09-08T00:51:48.456Z,18.63
2023-09-08T00:54:09.395Z,18.63
2023-09-08T00:56:30.983Z,18.57
2023-09-08T00:58:51.623Z,18.55
2023-09-08T01:01:12.295Z,18.57
2023-09-08T01:03:32.905Z,18.56
2023-09-08T01:05:54.035Z,18.46
2023-09-08T01:08:16.029Z,18.40
2023-09-08T01:10:38.281Z,18.36
2023-09-08T01:12:59.461Z,18.36
2023-09-08T01:15:20.479Z,18.31
2023-09-08T01:17:41.516Z,18.24
2023-09-08T01:20:23.698Z,18.13
2023-09-08T01:23:02.515Z,18.19
2023-09-08T01:25:24.343Z,18.10
2023-09-08T01:27:49.730Z,18.04
2023-09-08T01:30:11.326Z,17.92
2023-09-08T01:32:33.663Z,17.83
2023-09-08T01:34:54.589Z,17.91
2023-09-08T01:37:15.324Z,17.86
2023-09-08T01:39:36.841Z,17.84
2023-09-08T01:41:57.336Z,17.91
2023-09-08T01:44:18.100Z,17.87
2023-09-08T01:46:39.764Z,17.90
2023-09-08T01:49:00.569Z,17.91
2023-09-08T01:51:21.223Z,17.90
2023-09-08T01:53:41.635Z,17.83
2023-09-08T01:56:02.196Z,17.87
2023-09-08T01:58:22.828Z,17.84
2023-09-08T02:00:43.569Z,17.85
2023-09-08T02:03:05.026Z,17.81
2023-09-08T02:05:26.888Z,17.58
2023-09-08T02:07:47.516Z,17.56
2023-09-08T02:10:08.578Z,17.64
2023-09-08T02:12:29.457Z,17.61
2023-09-08T02:14:49.882Z,17.57
2023-09-08T02:17:10.867Z,17.55
2023-09-08T02:19:31.333Z,17.52
2023-09-08T02:21:52.191Z,17.60
2023-09-08T02:24:13.081Z,17.59
2023-09-08T02:26:34.905Z,17.45
2023-09-08T02:28:55.298Z,17.38
2023-09-08T02:31:15.653Z,17.40
2023-09-08T02:33:36.179Z,17.43
2023-09-08T02:35:56.590Z,17.44
2023-09-08T02:38:17.050Z,17.37
2023-09-08T02:40:37.650Z,17.37
2023-09-08T02:42:58.552Z,17.33
2023-09-08T02:45:19.098Z,17.37
2023-09-08T02:47:39.606Z,17.36
2023-09-08T02:50:00.419Z,17.29
2023-09-08T02:52:20.886Z,17.21
2023-09-08T02:54:41.768Z,17.14
2023-09-08T02:57:02.103Z,17.23
2023-09-08T02:59:22.557Z,17.23
2023-09-08T03:01:43.145Z,17.28
2023-09-08T03:04:03.853Z,17.32
2023-09-08T03:06:24.536Z,17.27
2023-09-08T03:08:44.977Z,17.16
2023-09-08T03:11:06.566Z,17.15
2023-09-08T03:13:27.312Z,17.08
2023-09-08T03:15:47.809Z,17.00
2023-09-08T03:18:08.194Z,16.99
2023-09-08T03:20:29.828Z,16.98
2023-09-08T03:22:50.412Z,16.98
2023-09-08T03:25:10.992Z,16.99
2023-09-08T03:27:32.714Z,16.95
2023-09-08T03:29:53.174Z,16.92
2023-09-08T03:32:13.748Z,16.88
2023-09-08T03:34:35.092Z,16.84
2023-09-08T03:36:55.818Z,16.66
2023-09-08T03:39:16.846Z,16.79
2023-09-08T03:41:37.680Z,16.82
2023-09-08T03:43:58.299Z,16.79
2023-09-08T03:46:19.279Z,16.82
2023-09-08T03:48:40.166Z,16.87
2023-09-08T03:51:00.812Z,16.87
2023-09-08T03:53:21.326Z,16.80
2023-09-08T03:55:41.935Z,16.73
2023-09-08T03:58:02.558Z,16.71
2023-09-08T04:00:23.546Z,16.70
2023-09-08T04:02:44.332Z,16.70
2023-09-08T04:05:05.532Z,16.66
2023-09-08T04:07:26.141Z,16.68
2023-09-08T04:09:46.697Z,16.64
2023-09-08T04:12:10.340Z,16.68
2023-09-08T04:14:31.517Z,16.70
2023-09-08T04:16:52.051Z,16.53
2023-09-08T04:19:12.558Z,16.51
2023-09-08T04:21:33.128Z,16.49
2023-09-08T04:23:53.662Z,16.60
2023-09-08T04:26:14.483Z,16.47
2023-09-08T04:28:35.334Z,16.31
2023-09-08T04:30:55.995Z,16.17
2023-09-08T04:33:16.617Z,16.18
2023-09-08T04:35:37.022Z,16.18
2023-09-08T04:37:57.577Z,16.19
2023-09-08T04:40:18.146Z,16.24
2023-09-08T04:42:38.764Z,16.17
2023-09-08T04:44:59.542Z,16.11
2023-09-08T04:47:20.011Z,15.97
2023-09-08T04:49:40.626Z,16.12
2023-09-08T04:52:01.471Z,16.19
2023-09-08T04:54:23.452Z,16.27
2023-09-08T04:56:44.153Z,16.26
2023-09-08T04:59:04.791Z,16.36
2023-09-08T05:01:25.888Z,16.28
2023-09-08T05:03:46.532Z,16.20
2023-09-08T05:06:07.383Z,16.13
2023-09-08T05:08:28.366Z,16.27
2023-09-08T05:10:49.352Z,16.25
2023-09-08T05:13:17.152Z,16.19
2023-09-08T05:15:50.088Z,16.24
2023-09-08T05:18:10.966Z,16.30
2023-09-08T05:20:31.717Z,16.31
2023-09-08T05:22:52.530Z,16.44
2023-09-08T05:25:13.163Z,16.57
2023-09-08T05:27:33.829Z,16.59
2023-09-08T05:29:54.376Z,16.71
2023-09-08T05:32:15.254Z,16.76
2023-09-08T05:34:35.555Z,16.78
2023-09-08T05:36:56.047Z,16.83
2023-09-08T05:39:18.669Z,16.87
2023-09-08T05:41:39.482Z,16.95
2023-09-08T05:44:00.103Z,16.98
2023-09-08T05:46:21.156Z,17.00
2023-09-08T05:48:42.003Z,17.04
2023-09-08T05:51:03.487Z,17.04
2023-09-08T05:53:24.283Z,17.01
2023-09-08T05:55:44.943Z,17.07
2023-09-08T05:58:07.352Z,17.12
2023-09-08T06:00:28.181Z,17.30
2023-09-08T06:02:48.911Z,17.37
2023-09-08T06:05:09.806Z,17.46
2023-09-08T06:07:30.808Z,17.53
2023-09-08T06:09:51.286Z,17.57
2023-09-08T06:12:11.670Z,17.48
2023-09-08T06:14:32.130Z,17.81
2023-09-08T06:16:52.663Z,17.86
2023-09-08T06:19:13.533Z,17.95
2023-09-08T06:21:34.629Z,18.07
2023-09-08T06:23:55.360Z,18.12
2023-09-08T06:26:16.102Z,18.15
2023-09-08T06:28:36.976Z,18.32
2023-09-08T06:30:58.232Z,18.38
2023-09-08T06:33:19.261Z,18.38
2023-09-08T06:35:40.274Z,18.59
2023-09-08T06:38:01.631Z,18.76
2023-09-08T06:40:22.328Z,18.83
2023-09-08T06:42:42.972Z,18.94
2023-09-08T06:45:03.648Z,19.09
2023-09-08T06:47:24.393Z,19.21
2023-09-08T06:49:44.940Z,19.29
2023-09-08T06:52:06.073Z,19.39
2023-09-08T06:54:26.703Z,19.47
2023-09-08T06:56:47.335Z,19.62
2023-09-08T06:59:07.895Z,19.75
2023-09-08T07:01:29.234Z,19.65
2023-09-08T07:03:49.933Z,19.82
2023-09-08T07:06:10.878Z,19.56
2023-09-08T07:08:31.376Z,19.39
2023-09-08T07:10:54.229Z,19.63
2023-09-08T07:13:14.954Z,19.52
2023-09-08T07:15:35.353Z,19.11
2023-09-08T07:17:56.033Z,19.60
2023-09-08T07:20:17.154Z,19.85
2023-09-08T07:22:38.601Z,19.85
2023-09-08T07:24:59.217Z,19.94
2023-09-08T07:27:21.294Z,20.10
2023-09-08T07:29:42.609Z,20.16
2023-09-08T07:32:03.864Z,20.17
2023-09-08T07:34:24.364Z,19.74
2023-09-08T07:36:44.872Z,20.18
2023-09-08T07:39:05.490Z,20.24
2023-09-08T07:41:26.334Z,20.65
2023-09-08T07:43:47.163Z,21.19
2023-09-08T07:46:08.384Z,21.68
2023-09-08T07:48:29.194Z,21.01
2023-09-08T07:50:50.005Z,21.64
2023-09-08T07:53:10.615Z,21.81
2023-09-08T07:55:31.277Z,22.22
2023-09-08T07:57:52.280Z,21.71
2023-09-08T08:00:14.013Z,21.34
2023-09-08T08:02:34.675Z,21.02
2023-09-08T08:04:55.194Z,21.11
2023-09-08T08:07:15.856Z,20.89
2023-09-08T08:09:36.694Z,21.25
2023-09-08T08:11:57.322Z,21.02
2023-09-08T08:14:18.179Z,21.72
2023-09-08T08:16:38.778Z,22.03
2023-09-08T08:19:00.612Z,21.70
2023-09-08T08:21:23.778Z,21.95
2023-09-08T08:23:44.901Z,22.74
2023-09-08T08:26:05.756Z,22.75
2023-09-08T08:28:26.655Z,22.41
2023-09-08T08:30:49.287Z,23.61
2023-09-08T08:33:10.363Z,23.74
2023-09-08T08:35:31.173Z,23.16
2023-09-08T08:37:51.829Z,23.15
2023-09-08T08:40:13.824Z,23.34
2023-09-08T08:42:34.779Z,23.24
2023-09-08T08:44:57.064Z,22.81
2023-09-08T08:47:18.084Z,23.23
2023-09-08T08:49:42.078Z,23.24
2023-09-08T08:52:08.092Z,23.47
2023-09-08T08:54:29.519Z,22.68
2023-09-08T08:56:50.372Z,23.11
2023-09-08T08:59:12.287Z,24.17
2023-09-08T09:01:33.879Z,23.39
2023-09-08T09:03:54.556Z,23.91
2023-09-08T09:06:15.953Z,23.71
2023-09-08T09:08:39.789Z,23.50
2023-09-08T09:11:00.707Z,23.75
2023-09-08T09:13:21.203Z,23.62
2023-09-08T09:15:41.940Z,23.75
2023-09-08T09:18:07.198Z,23.24
2023-09-08T09:20:27.930Z,23.94
2023-09-08T09:22:50.219Z,24.61
2023-09-08T09:25:11.907Z,25.42
2023-09-08T09:27:32.776Z,24.64
2023-09-08T09:29:53.653Z,23.77
2023-09-08T09:32:15.193Z,24.44
2023-09-08T09:34:36.222Z,25.58
2023-09-08T09:36:57.144Z,24.64
2023-09-08T09:39:19.576Z,25.31
2023-09-08T09:41:41.447Z,25.48
2023-09-08T09:44:02.205Z,24.74
2023-09-08T09:46:23.099Z,25.08
2023-09-08T09:48:43.897Z,25.55
2023-09-08T09:51:21.012Z,25.42
2023-09-08T09:53:43.493Z,24.91
2023-09-08T09:56:04.380Z,24.58
2023-09-08T09:58:26.238Z,25.16
2023-09-08T10:00:49.758Z,25.73
2023-09-08T10:03:12.439Z,25.16
2023-09-08T10:05:34.686Z,24.82
2023-09-08T10:07:55.222Z,26.00
2023-09-08T10:10:17.135Z,26.35
2023-09-08T10:12:38.926Z,26.64
2023-09-08T10:15:00.466Z,26.44
2023-09-08T10:17:29.625Z,26.22
2023-09-08T10:19:52.950Z,26.56
2023-09-08T10:22:20.491Z,26.45
2023-09-08T10:24:42.029Z,26.72
2023-09-08T10:27:09.542Z,25.80
2023-09-08T10:29:32.238Z,25.92
2023-09-08T10:31:52.840Z,25.77
2023-09-08T10:34:14.313Z,26.29
2023-09-08T10:36:36.876Z,25.98
2023-09-08T10:39:43.103Z,25.79
2023-09-08T10:42:30.440Z,27.01
2023-09-08T10:44:58.078Z,26.17
2023-09-08T10:47:25.397Z,26.25
2023-09-08T10:49:46.622Z,26.37
2023-09-08T10:52:12.929Z,26.64
2023-09-08T10:54:43.406Z,26.44
2023-09-08T10:57:13.567Z,26.19
2023-09-08T10:59:39.782Z,27.39
2023-09-08T11:02:04.613Z,27.49
2023-09-08T11:04:26.323Z,27.90
2023-09-08T11:06:47.149Z,28.18
2023-09-08T11:09:08.876Z,26.34
2023-09-08T11:11:34.450Z,26.79
2023-09-08T11:13:54.992Z,27.18
2023-09-08T11:16:17.056Z,26.80
2023-09-08T11:18:38.634Z,27.14
2023-09-08T11:21:01.365Z,26.43
2023-09-08T11:23:23.222Z,26.92
2023-09-08T11:25:43.958Z,27.44
2023-09-08T11:28:05.064Z,27.37
2023-09-08T11:30:26.615Z,27.52
2023-09-08T11:32:47.585Z,28.01
2023-09-08T11:35:10.771Z,28.18
2023-09-08T11:37:31.362Z,27.03
2023-09-08T11:39:51.879Z,27.59
2023-09-08T11:42:16.818Z,27.38
2023-09-08T11:44:38.314Z,27.59
2023-09-08T11:46:58.896Z,26.29
2023-09-08T11:49:21.713Z,27.33
2023-09-08T11:51:44.321Z,27.68
2023-09-08T11:54:05.227Z,28.72
2023-09-08T11:56:26.586Z,28.24
2023-09-08T11:58:48.222Z,28.70
2023-09-08T12:01:09.181Z,28.55
2023-09-08T12:03:29.889Z,28.77
2023-09-08T12:05:54.023Z,28.61
2023-09-08T12:08:14.716Z,27.27
2023-09-08T12:10:44.411Z,27.74
2023-09-08T12:13:05.476Z,28.63
2023-09-08T12:15:40.588Z,27.16
2023-09-08T12:18:03.049Z,27.37
2023-09-08T12:20:23.515Z,28.32
2023-09-08T12:22:51.400Z,28.27
2023-09-08T12:25:12.088Z,28.41
2023-09-08T12:27:37.554Z,29.20
2023-09-08T12:30:01.292Z,28.99
2023-09-08T12:32:23.378Z,28.74
2023-09-08T12:34:44.443Z,28.94
2023-09-08T12:37:08.305Z,28.35
2023-09-08T12:39:28.797Z,27.71
2023-09-08T12:41:49.223Z,27.03
2023-09-08T12:44:10.566Z,27.39
2023-09-08T12:46:33.251Z,27.39
2023-09-08T12:48:53.607Z,27.56
2023-09-08T12:51:14.046Z,27.86
2023-09-08T12:53:37.867Z,27.54
2023-09-08T12:55:58.265Z,27.54
2023-09-08T12:58:18.652Z,28.17
2023-09-08T13:00:39.405Z,28.07
2023-09-08T13:03:00.161Z,28.27
2023-09-08T13:05:20.755Z,28.63
2023-09-08T13:07:41.424Z,28.80
2023-09-08T13:10:02.402Z,29.27
2023-09-08T13:12:23.322Z,29.60
2023-09-08T13:14:44.607Z,29.92
2023-09-08T13:17:05.657Z,29.22
2023-09-08T13:19:26.323Z,29.17
2023-09-08T13:21:46.897Z,28.70
2023-09-08T13:24:09.092Z,28.58
2023-09-08T13:26:29.815Z,28.82
2023-09-08T13:28:50.505Z,28.91
2023-09-08T13:31:11.291Z,29.36
2023-09-08T13:33:31.950Z,28.40
2023-09-08T13:35:53.758Z,28.14
2023-09-08T13:38:14.595Z,29.00
2023-09-08T13:40:35.136Z,29.51
2023-09-08T13:42:55.578Z,29.74
2023-09-08T13:45:16.070Z,28.13
2023-09-08T13:47:39.013Z,28.23
2023-09-08T13:50:01.792Z,29.11
2023-09-08T13:52:26.717Z,29.69
2023-09-08T13:54:54.780Z,29.91
2023-09-08T13:57:28.531Z,29.80
2023-09-08T13:59:57.603Z,29.72
2023-09-08T14:04:48.156Z,29.63
2023-09-08T14:09:44.199Z,29.81
2023-09-08T14:14:37.511Z,29.79
2023-09-08T14:16:57.910Z,29.77
2023-09-08T14:19:18.329Z,29.75
2023-09-08T14:21:40.533Z,30.55
2023-09-08T14:24:01.291Z,30.34
2023-09-08T14:26:22.129Z,29.75
2023-09-08T14:28:42.685Z,29.68
2023-09-08T14:31:03.666Z,29.13
2023-09-08T14:33:24.296Z,29.27
2023-09-08T14:35:46.975Z,28.92
2023-09-08T14:38:09.166Z,29.96
2023-09-08T14:40:29.958Z,29.27
2023-09-08T14:42:53.006Z,29.19
2023-09-08T14:45:15.094Z,30.08
2023-09-08T14:47:36.164Z,29.40
2023-09-08T14:49:57.865Z,29.46
2023-09-08T14:52:21.673Z,29.31
2023-09-08T14:54:42.471Z,29.41
2023-09-08T14:57:03.117Z,29.57
2023-09-08T14:59:23.911Z,29.43
2023-09-08T15:01:46.066Z,29.08
2023-09-08T15:04:07.260Z,28.87
2023-09-08T15:06:28.749Z,29.13
2023-09-08T15:08:49.507Z,29.62
2023-09-08T15:11:10.404Z,29.59
2023-09-08T15:13:31.284Z,30.03
2023-09-08T15:15:52.677Z,28.81
2023-09-08T15:18:13.181Z,29.34
2023-09-08T15:20:33.747Z,29.46
2023-09-08T15:22:54.892Z,29.78
2023-09-08T15:25:15.702Z,30.04
2023-09-08T15:27:36.527Z,29.94
2023-09-08T15:29:57.081Z,29.57
2023-09-08T15:32:17.975Z,29.59
2023-09-08T15:34:38.528Z,29.14
2023-09-08T15:36:59.107Z,29.78
2023-09-08T15:39:19.554Z,29.68
2023-09-08T15:41:40.050Z,29.35
2023-09-08T15:44:00.610Z,29.37
2023-09-08T15:46:21.313Z,29.74
2023-09-08T15:48:42.340Z,29.66
2023-09-08T15:51:04.131Z,29.77
2023-09-08T15:53:24.617Z,30.11
2023-09-08T15:55:45.148Z,29.37
2023-09-08T15:58:05.736Z,29.54
2023-09-08T16:00:26.462Z,29.66
2023-09-08T16:02:47.397Z,29.11
2023-09-08T16:05:09.165Z,28.96
2023-09-08T16:07:29.788Z,29.10
2023-09-08T16:09:50.344Z,29.49
2023-09-08T16:12:10.839Z,29.77
2023-09-08T16:14:31.573Z,29.83
2023-09-08T16:16:52.898Z,29.92
2023-09-08T16:19:13.944Z,29.91
2023-09-08T16:21:35.148Z,29.69
2023-09-08T16:23:55.924Z,29.05
2023-09-08T16:26:16.417Z,29.02
2023-09-08T16:28:37.064Z,29.08
2023-09-08T16:31:04.525Z,29.30
2023-09-08T16:33:24.921Z,29.56
2023-09-08T16:35:45.418Z,29.53
2023-09-08T16:38:05.940Z,28.55
2023-09-08T16:40:26.981Z,28.89
2023-09-08T16:42:47.171Z,29.04
2023-09-08T16:45:08.067Z,29.32
2023-09-08T16:47:28.557Z,28.89
2023-09-08T16:49:49.005Z,29.18
2023-09-08T16:52:09.451Z,28.80
2023-09-08T16:54:29.933Z,28.70
2023-09-08T16:56:50.867Z,28.65
2023-09-08T16:59:11.680Z,28.81
2023-09-08T17:01:32.742Z,28.74
2023-09-08T17:03:53.891Z,28.80
2023-09-08T17:06:14.468Z,28.95
2023-09-08T17:08:34.961Z,28.66
2023-09-08T17:10:58.580Z,28.72
2023-09-08T17:13:19.650Z,28.66
2023-09-08T17:15:40.868Z,28.64
2023-09-08T17:18:01.856Z,28.64
2023-09-08T17:20:23.181Z,28.61
2023-09-08T17:22:43.907Z,28.57
2023-09-08T17:25:04.874Z,28.53
2023-09-08T17:27:25.400Z,28.43
2023-09-08T17:29:46.103Z,28.19
2023-09-08T17:32:07.122Z,28.20
2023-09-08T17:34:28.056Z,28.12
2023-09-08T17:36:53.023Z,28.07
2023-09-08T17:39:13.894Z,27.96
2023-09-08T17:41:34.308Z,28.00
2023-09-08T17:43:54.834Z,27.93
2023-09-08T17:46:15.775Z,27.88
2023-09-08T17:48:36.278Z,27.90
2023-09-08T17:50:57.083Z,27.81
2023-09-08T17:53:17.810Z,27.65
2023-09-08T17:55:38.388Z,27.53
2023-09-08T17:57:59.112Z,27.48
2023-09-08T18:00:19.761Z,27.40
2023-09-08T18:02:40.611Z,27.26
2023-09-08T18:05:01.364Z,27.17
2023-09-08T18:07:21.800Z,27.12
2023-09-08T18:09:42.160Z,26.95
2023-09-08T18:12:02.787Z,26.98
2023-09-08T18:14:23.632Z,26.78
2023-09-08T18:16:44.238Z,26.59
2023-09-08T18:19:04.984Z,26.52
2023-09-08T18:21:25.658Z,26.44
2023-09-08T18:23:47.550Z,26.34
2023-09-08T18:26:08.955Z,26.38
2023-09-08T18:28:29.448Z,26.39
2023-09-08T18:30:51.545Z,26.57
2023-09-08T18:33:12.322Z,26.60
2023-09-08T18:35:34.024Z,26.46
2023-09-08T18:37:54.788Z,26.40
2023-09-08T18:40:15.572Z,26.34
2023-09-08T18:42:35.987Z,26.35
2023-09-08T18:44:56.609Z,26.36
2023-09-08T18:47:17.578Z,26.32
2023-09-08T18:49:38.385Z,26.22
2023-09-08T18:51:58.985Z,26.18
2023-09-08T18:54:19.531Z,26.10
2023-09-08T18:56:40.129Z,25.99
2023-09-08T18:59:01.953Z,25.86
2023-09-08T19:01:23.208Z,25.84
2023-09-08T19:03:44.076Z,25.83
2023-09-08T19:06:05.168Z,25.71
2023-09-08T19:08:26.214Z,25.55
2023-09-08T19:10:46.776Z,25.47
2023-09-08T19:13:07.486Z,25.32
2023-09-08T19:15:28.308Z,25.37
2023-09-08T19:17:48.968Z,25.46
2023-09-08T19:20:10.105Z,25.49
2023-09-08T19:22:30.681Z,25.12
2023-09-08T19:24:52.395Z,24.98
2023-09-08T19:27:13.347Z,25.01
2023-09-08T19:29:34.153Z,24.99
2023-09-08T19:31:54.704Z,25.01
2023-09-08T19:34:15.266Z,24.99
2023-09-08T19:36:36.133Z,24.77
2023-09-08T19:38:56.583Z,24.61
2023-09-08T19:41:17.053Z,24.62
2023-09-08T19:43:38.075Z,24.53
2023-09-08T19:46:05.759Z,24.46
2023-09-08T19:48:26.313Z,24.36
2023-09-08T19:50:46.875Z,24.12
2023-09-08T19:53:07.417Z,24.01
2023-09-08T19:55:27.929Z,24.06
2023-09-08T19:57:48.628Z,24.14
2023-09-08T20:00:09.451Z,24.12
2023-09-08T20:02:30.168Z,24.18
2023-09-08T20:04:50.791Z,24.18
2023-09-08T20:07:11.262Z,24.15
2023-09-08T20:09:32.512Z,24.18
2023-09-08T20:11:54.049Z,24.20
2023-09-08T20:14:14.734Z,24.18
2023-09-08T20:16:35.408Z,24.16
2023-09-08T20:18:56.083Z,24.21
2023-09-08T20:21:16.554Z,23.99
2023-09-08T20:23:37.427Z,23.93
2023-09-08T20:25:59.073Z,23.95
2023-09-08T20:28:19.767Z,23.95
2023-09-08T20:30:41.000Z,23.94
2023-09-08T20:33:01.802Z,23.92
2023-09-08T20:35:22.428Z,23.89
2023-09-08T20:37:42.927Z,23.78
2023-09-08T20:40:04.626Z,23.71
2023-09-08T20:42:25.554Z,23.66
2023-09-08T20:44:46.459Z,23.62
2023-09-08T20:47:07.193Z,23.52
2023-09-08T20:49:28.225Z,23.55
2023-09-08T20:51:49.230Z,23.58
2023-09-08T20:54:09.814Z,23.56
2023-09-08T20:56:30.557Z,23.56
2023-09-08T20:58:51.584Z,23.44
2023-09-08T21:01:12.402Z,23.40
2023-09-08T21:03:33.949Z,23.43
2023-09-08T21:05:54.798Z,23.36
2023-09-08T21:08:15.782Z,23.44
2023-09-08T21:10:36.640Z,23.51
2023-09-08T21:12:57.380Z,23.36
2023-09-08T21:15:17.951Z,23.34
2023-09-08T21:17:38.368Z,23.31
2023-09-08T21:20:00.055Z,23.32
2023-09-08T21:22:20.549Z,23.27
2023-09-08T21:24:41.084Z,23.24
2023-09-08T21:27:01.767Z,23.25
2023-09-08T21:29:22.570Z,23.24
2023-09-08T21:31:43.510Z,23.17
2023-09-08T21:34:04.267Z,23.16
2023-09-08T21:36:25.096Z,23.13
2023-09-08T21:38:46.082Z,23.09
2023-09-08T21:41:08.630Z,23.06
2023-09-08T21:43:29.354Z,23.04
2023-09-08T21:45:52.025Z,22.99
2023-09-08T21:48:12.555Z,22.95
2023-09-08T21:50:33.060Z,22.94
2023-09-08T21:52:54.016Z,22.90
2023-09-08T21:55:17.557Z,22.79
2023-09-08T21:57:38.396Z,22.68
2023-09-08T21:59:58.816Z,22.66
2023-09-08T22:02:19.432Z,22.61
2023-09-08T22:04:40.004Z,22.60
2023-09-08T22:07:01.237Z,22.59
2023-09-08T22:09:22.108Z,22.62
2023-09-08T22:11:43.526Z,22.70
2023-09-08T22:14:04.440Z,22.71
2023-09-08T22:16:25.723Z,22.68
2023-09-08T22:18:46.533Z,22.69
2023-09-08T22:21:08.588Z,22.57
2023-09-08T22:23:29.208Z,22.53
2023-09-08T22:25:50.052Z,22.58
2023-09-08T22:28:10.635Z,22.53
2023-09-08T22:30:31.135Z,22.51
2023-09-08T22:32:51.770Z,22.50
2023-09-08T22:35:12.741Z,22.49
2023-09-08T22:37:35.517Z,22.45
2023-09-08T22:39:56.291Z,22.39
2023-09-08T22:42:16.861Z,22.37
2023-09-08T22:44:37.747Z,22.32
2023-09-08T22:46:58.418Z,22.22
2023-09-08T22:49:18.865Z,22.20
2023-09-08T22:51:39.486Z,22.08
2023-09-08T22:54:00.746Z,21.94
2023-09-08T22:56:21.706Z,21.91
2023-09-08T22:58:42.792Z,21.82
2023-09-08T23:01:03.852Z,21.77
2023-09-08T23:03:24.409Z,21.76
2023-09-08T23:05:45.339Z,21.66
2023-09-08T23:08:06.093Z,21.67
2023-09-08T23:10:26.808Z,21.63
2023-09-08T23:12:47.447Z,21.58
2023-09-08T23:15:10.106Z,21.51
2023-09-08T23:17:31.046Z,21.54
2023-09-08T23:19:51.504Z,21.45
2023-09-08T23:22:11.936Z,21.42
2023-09-08T23:24:32.363Z,21.36
2023-09-08T23:26:53.683Z,21.39
2023-09-08T23:29:14.365Z,21.39
2023-09-08T23:31:35.419Z,21.37
2023-09-08T23:33:55.950Z,21.33
2023-09-08T23:36:16.783Z,21.33
2023-09-08T23:38:37.206Z,21.29
2023-09-08T23:40:57.788Z,21.24
2023-09-08T23:43:18.533Z,21.30
2023-09-08T23:45:44.019Z,21.31
2023-09-08T23:48:05.868Z,21.32
2023-09-08T23:50:50.642Z,21.29
2023-09-08T23:53:11.387Z,21.32
2023-09-08T23:55:31.839Z,21.34
2023-09-08T23:57:52.456Z,21.20
